Time;durP1;ratioP1;P1;durP2;ratioP2;P2;SDS_P1;SDS_P2;PMS_P1;PMS_P2;Temp;Humidity;BMP_temperature;BMP_pressure;BME280_temperature;BME280_humidity;BME280_pressure;Samples;Min_cycle;Max_cycle;Signal;HPM_P1;HPM_P2
2023/11/07 00:00:08;;;;;;;2.05;1.85;;;;;;;20.77;44.60;100383.03;5026273;28;20029;-74
2023/11/07 00:02:34;;;;;;;1.80;1.27;;;;;;;20.78;44.75;100382.00;5025739;28;20046;-74
2023/11/07 00:04:59;;;;;;;1.70;1.60;;;;;;;20.74;44.46;100374.66;5026443;28;20048;-74
2023/11/07 00:07:25;;;;;;;2.65;1.63;;;;;;;20.73;44.60;100384.44;5033846;28;20056;-74
2023/11/07 00:09:51;;;;;;;1.90;1.40;;;;;;;20.73;44.59;100378.31;5010519;28;20046;-74
2023/11/07 00:12:17;;;;;;;1.55;1.40;;;;;;;20.75;44.58;100389.53;5032182;28;20045;-74
2023/11/07 00:14:43;;;;;;;1.88;1.67;;;;;;;20.70;44.55;100384.00;5022933;28;20032;-74
2023/11/07 00:17:09;;;;;;;1.83;1.40;;;;;;;20.64;44.73;100368.91;5028180;28;20044;-74
2023/11/07 00:19:35;;;;;;;2.72;1.30;;;;;;;20.70;44.55;100376.06;5025842;28;20767;-74
2023/11/07 00:22:01;;;;;;;1.98;1.60;;;;;;;20.72;44.67;100381.97;5027534;28;20050;-74
2023/11/07 00:24:26;;;;;;;2.35;1.60;;;;;;;20.66;44.54;100372.19;5029206;28;20056;-74
2023/11/07 00:26:53;;;;;;;1.52;1.42;;;;;;;20.68;44.69;100373.63;5030117;28;20029;-74
2023/11/07 00:29:20;;;;;;;3.40;1.48;;;;;;;20.64;44.72;100367.06;5030018;28;20052;-74
2023/11/07 00:31:45;;;;;;;1.90;1.60;;;;;;;20.71;44.47;100375.06;5032292;28;20898;-74
2023/11/07 00:34:11;;;;;;;2.15;1.55;;;;;;;20.64;44.52;100363.63;5016667;28;20046;-75
2023/11/07 00:36:37;;;;;;;2.47;1.60;;;;;;;20.61;44.74;100358.72;5026110;28;20143;-74
2023/11/07 00:39:03;;;;;;;3.75;1.60;;;;;;;20.69;44.66;100374.44;5028169;28;20475;-74
2023/11/07 00:41:28;;;;;;;2.90;1.63;;;;;;;20.67;44.52;100374.66;5019152;28;20041;-74
2023/11/07 00:43:55;;;;;;;2.30;1.75;;;;;;;20.58;44.74;100361.75;5029841;28;20033;-74
2023/11/07 00:46:21;;;;;;;2.90;1.73;;;;;;;20.66;44.76;100375.66;5026417;28;20047;-74
2023/11/07 00:48:47;;;;;;;3.80;1.65;;;;;;;20.54;44.69;100353.41;5024808;28;20153;-74
2023/11/07 00:51:12;;;;;;;2.08;1.67;;;;;;;20.54;44.73;100349.94;5035481;28;20075;-74
2023/11/07 00:53:38;;;;;;;1.40;1.30;;;;;;;20.64;44.73;100372.38;5031224;28;20080;-74
2023/11/07 00:56:07;;;;;;;1.90;1.60;;;;;;;20.64;44.79;100382.94;5022719;28;20049;-74
2023/11/07 00:58:33;;;;;;;3.08;1.70;;;;;;;20.63;44.46;100380.50;5026926;28;20594;-74
2023/11/07 01:01:00;;;;;;;1.85;1.52;;;;;;;20.45;44.72;100365.13;4992203;28;20059;-74
2023/11/07 01:03:26;;;;;;;1.83;1.63;;;;;;;20.61;44.48;100396.56;5024678;28;20515;-74
2023/11/07 01:05:51;;;;;;;2.70;1.63;;;;;;;20.61;44.66;100393.94;5030768;28;20045;-74
2023/11/07 01:08:18;;;;;;;1.73;1.33;;;;;;;20.61;44.68;100396.56;5026966;28;20044;-75
2023/11/07 01:10:45;;;;;;;1.98;1.67;;;;;;;20.61;44.62;100401.84;5028193;28;20051;-74
2023/11/07 01:13:11;;;;;;;2.35;1.70;;;;;;;20.51;44.86;100394.28;5026580;28;20060;-74
2023/11/07 01:15:37;;;;;;;2.58;1.85;;;;;;;20.60;44.75;100415.28;5020030;28;20050;-74
2023/11/07 01:18:06;;;;;;;1.63;1.52;;;;;;;20.52;44.67;100406.50;5021448;28;20064;-74
2023/11/07 01:20:32;;;;;;;2.28;1.52;;;;;;;20.58;44.64;100422.59;4997195;28;20550;-74
2023/11/07 01:22:58;;;;;;;3.08;1.80;;;;;;;20.54;44.59;100421.38;5019795;28;20057;-74
2023/11/07 01:25:23;;;;;;;3.25;1.60;;;;;;;20.58;44.55;100431.34;5030090;28;20440;-74
2023/11/07 01:27:50;;;;;;;2.60;1.67;;;;;;;20.58;44.62;100419.97;5022818;28;20863;-74
2023/11/07 01:30:15;;;;;;;2.75;1.70;;;;;;;20.44;44.66;100400.53;5027990;28;20119;-74
2023/11/07 01:32:43;;;;;;;1.50;1.40;;;;;;;20.45;44.57;100405.63;5026670;28;20528;-74
2023/11/07 01:35:09;;;;;;;2.80;1.60;;;;;;;20.46;44.86;100414.38;5019481;28;20037;-74
2023/11/07 01:37:36;;;;;;;2.90;1.83;;;;;;;20.55;44.53;100431.75;5025500;28;20766;-74
2023/11/07 01:40:03;;;;;;;2.80;1.58;;;;;;;20.49;44.72;100417.47;5019618;28;20037;-74
2023/11/07 01:42:28;;;;;;;1.73;1.63;;;;;;;20.46;44.86;100417.03;5019406;28;20034;-74
2023/11/07 01:44:54;;;;;;;3.67;1.60;;;;;;;20.48;44.72;100422.97;5020207;28;20804;-74
2023/11/07 01:47:25;;;;;;;1.88;1.35;;;;;;;20.51;44.65;100435.78;5017187;28;20172;-74
2023/11/07 01:49:51;;;;;;;1.67;1.40;;;;;;;20.41;44.77;100427.38;5036547;28;20139;-74
2023/11/07 01:52:21;;;;;;;2.05;1.60;;;;;;;20.51;44.69;100438.44;5030473;28;20025;-75
2023/11/07 01:54:51;;;;;;;;;;;;;;;20.49;44.69;100443.94;5021441;28;22138;-74
2023/11/07 01:57:17;;;;;;;2.05;1.77;;;;;;;20.39;44.64;100432.00;5025540;28;19917;-74
2023/11/07 01:59:43;;;;;;;1.90;1.80;;;;;;;20.49;44.53;100449.22;5012517;28;20525;-74
2023/11/07 02:02:13;;;;;;;2.60;1.45;;;;;;;20.42;44.84;100442.22;5018534;28;20065;-74
2023/11/07 02:04:39;;;;;;;1.88;1.50;;;;;;;20.49;44.64;100457.16;5022152;28;20053;-74
2023/11/07 02:07:06;;;;;;;5.25;2.67;;;;;;;20.38;44.59;100441.78;5027286;28;20144;-74
2023/11/07 02:09:32;;;;;;;2.78;1.70;;;;;;;20.47;44.73;100447.78;5021002;28;20370;-74
2023/11/07 02:11:57;;;;;;;1.98;1.60;;;;;;;20.47;44.51;100445.13;5023060;28;20049;-74
2023/11/07 02:14:30;;;;;;;1.52;1.40;;;;;;;20.46;44.71;100451.41;5036009;28;20044;-74
2023/11/07 02:16:56;;;;;;;2.88;1.83;;;;;;;20.38;44.76;100441.78;5023076;28;20590;-74
2023/11/07 02:19:21;;;;;;;2.00;1.45;;;;;;;20.46;44.66;100443.47;5023490;28;20040;-74
2023/11/07 02:21:50;;;;;;;2.78;1.80;;;;;;;20.41;44.61;100452.00;5024751;28;20439;-74
2023/11/07 02:24:16;;;;;;;3.63;1.80;;;;;;;20.40;44.63;100445.03;5019767;28;20052;-74
2023/11/07 02:26:42;;;;;;;2.35;1.80;;;;;;;20.46;44.67;100459.34;5029880;28;20036;-74
2023/11/07 02:29:08;;;;;;;1.65;1.50;;;;;;;20.39;44.78;100456.63;5001539;28;20042;-74
2023/11/07 02:31:34;;;;;;;3.00;1.52;;;;;;;20.44;44.78;100456.06;5028305;28;20064;-74
2023/11/07 02:34:05;;;;;;;2.58;1.60;;;;;;;20.42;44.65;100450.16;5019564;28;20045;-74
2023/11/07 02:36:32;;;;;;;2.53;1.70;;;;;;;20.43;44.72;100465.03;5020845;28;20799;-74
2023/11/07 02:38:58;;;;;;;1.90;1.70;;;;;;;20.41;44.70;100454.63;5024219;28;20444;-74
2023/11/07 02:41:24;;;;;;;3.22;1.70;;;;;;;20.18;44.58;100425.75;5019341;28;20125;-74
2023/11/07 02:43:50;;;;;;;2.45;1.60;;;;;;;20.43;44.50;100457.91;5023165;28;20392;-74
2023/11/07 02:46:15;;;;;;;2.95;2.20;;;;;;;20.37;44.60;100457.84;5026233;28;20040;-74
2023/11/07 02:48:41;;;;;;;6.75;2.00;;;;;;;20.43;44.82;100460.53;5024065;28;20042;-74
2023/11/07 02:51:06;;;;;;;2.00;1.48;;;;;;;20.43;44.73;100454.44;5024286;28;20037;-74
2023/11/07 02:53:32;;;;;;;2.00;1.83;;;;;;;20.37;44.56;100457.84;5019117;28;20033;-74
2023/11/07 02:55:57;;;;;;;2.92;2.10;;;;;;;20.37;44.64;100452.53;5020478;28;20044;-75
2023/11/07 02:58:24;;;;;;;1.98;1.70;;;;;;;20.40;44.81;100468.84;5014596;28;20555;-74
2023/11/07 03:00:49;;;;;;;2.05;1.60;;;;;;;20.33;44.82;100457.41;5023417;28;20037;-74
2023/11/07 03:03:15;;;;;;;1.80;1.48;;;;;;;20.42;44.72;100476.59;5004940;28;20033;-74
2023/11/07 03:05:41;;;;;;;5.03;2.20;;;;;;;20.40;44.81;100474.13;5017218;28;20041;-74
2023/11/07 03:08:07;;;;;;;3.47;1.83;;;;;;;20.31;44.63;100459.44;5024217;28;20042;-74
2023/11/07 03:10:32;;;;;;;1.60;1.45;;;;;;;20.41;44.62;100474.97;5026241;28;20045;-74
2023/11/07 03:13:00;;;;;;;3.22;1.73;;;;;;;20.37;44.79;100469.22;5026740;28;20029;-74
2023/11/07 03:15:26;;;;;;;2.95;1.80;;;;;;;20.38;44.84;100472.69;5019614;28;20033;-74
2023/11/07 03:17:52;;;;;;;2.33;1.70;;;;;;;20.21;44.81;100445.69;5005935;28;20510;-74
2023/11/07 03:20:17;;;;;;;3.15;1.75;;;;;;;20.38;44.59;100468.22;5008843;28;20041;-74
2023/11/07 03:22:43;;;;;;;2.53;1.90;;;;;;;20.35;44.75;100462.50;5009319;28;20045;-74
2023/11/07 03:25:09;;;;;;;3.33;1.70;;;;;;;20.33;44.66;100467.16;5032004;28;20033;-74
2023/11/07 03:27:36;;;;;;;1.60;1.50;;;;;;;20.41;44.67;100483.72;5010386;28;20602;-74
2023/11/07 03:30:05;;;;;;;2.15;1.88;;;;;;;20.40;44.66;100479.41;5030291;28;20506;-74
2023/11/07 03:32:32;;;;;;;1.60;1.50;;;;;;;20.41;44.83;100481.09;5027379;28;20423;-74
2023/11/07 03:34:58;;;;;;;1.58;1.48;;;;;;;20.39;44.66;100463.75;5029917;28;20040;-74
2023/11/07 03:37:24;;;;;;;2.28;1.85;;;;;;;20.40;44.68;100481.25;5008405;28;20524;-74
2023/11/07 03:39:50;;;;;;;1.58;1.48;;;;;;;20.30;44.72;100465.72;5044344;28;20079;-74
2023/11/07 03:42:16;;;;;;;1.60;1.40;;;;;;;20.41;44.63;100482.91;5021483;28;20049;-74
2023/11/07 03:44:41;;;;;;;2.72;1.75;;;;;;;20.41;44.55;100474.97;5025299;28;20450;-74
2023/11/07 03:47:07;;;;;;;3.22;1.77;;;;;;;20.40;44.77;100475.97;5009145;28;20056;-74
2023/11/07 03:49:33;;;;;;;1.45;1.35;;;;;;;20.40;44.79;100470.66;5030021;28;20044;-74
2023/11/07 03:51:58;;;;;;;1.58;1.48;;;;;;;20.15;44.77;100442.00;5022932;28;20041;-74
2023/11/07 03:54:24;;;;;;;2.40;1.92;;;;;;;20.40;44.77;100478.59;5022728;28;20033;-74
2023/11/07 03:56:49;;;;;;;1.67;1.58;;;;;;;20.37;44.68;100485.09;5022625;28;20045;-74
2023/11/07 03:59:15;;;;;;;2.85;1.60;;;;;;;20.36;44.72;100472.06;5027026;28;20037;-74
2023/11/07 04:01:43;;;;;;;2.35;1.90;;;;;;;20.40;44.71;100479.41;5035330;28;20629;-74
2023/11/07 04:04:09;;;;;;;1.88;1.70;;;;;;;20.32;44.68;100469.00;5034039;28;20041;-74
2023/11/07 04:06:34;;;;;;;2.97;1.80;;;;;;;20.38;44.76;100486.72;5028409;28;20048;-74
2023/11/07 04:09:00;;;;;;;1.67;1.50;;;;;;;20.39;44.67;100487.53;5031503;28;20106;-74
2023/11/07 04:11:26;;;;;;;4.82;2.05;;;;;;;20.38;44.78;100489.38;5031004;28;20033;-74
2023/11/07 04:13:51;;;;;;;2.70;1.90;;;;;;;20.38;44.61;100481.44;5030532;28;20035;-74
2023/11/07 04:16:20;;;;;;;3.42;1.60;;;;;;;20.37;44.72;100479.81;5024493;28;21438;-74
2023/11/07 04:18:46;;;;;;;1.58;1.40;;;;;;;20.38;44.77;100483.25;5024536;28;20072;-74
2023/11/07 04:21:11;;;;;;;1.83;1.60;;;;;;;20.37;44.68;100487.75;5022256;28;20088;-74
2023/11/07 04:23:37;;;;;;;2.53;1.60;;;;;;;20.38;44.85;100491.19;5027120;28;20527;-74
2023/11/07 04:26:03;;;;;;;4.50;1.83;;;;;;;20.36;44.75;100483.47;5025562;28;20049;-74
2023/11/07 04:28:31;;;;;;;2.67;1.63;;;;;;;20.37;44.69;100495.69;5028515;28;20037;-74
2023/11/07 04:30:56;;;;;;;2.80;1.67;;;;;;;20.37;44.71;100487.75;5027384;28;20032;-74
2023/11/07 04:33:22;;;;;;;3.05;1.80;;;;;;;20.37;44.72;100490.38;5032036;28;20040;-74
2023/11/07 04:35:47;;;;;;;2.42;1.50;;;;;;;20.35;44.68;100488.94;5022681;28;20515;-74
2023/11/07 04:38:13;;;;;;;1.58;1.48;;;;;;;20.29;44.71;100476.47;5024000;28;20937;-74
2023/11/07 04:40:40;;;;;;;2.05;1.85;;;;;;;20.36;44.80;100482.66;5024334;28;20793;-74
2023/11/07 04:43:07;;;;;;;2.08;1.52;;;;;;;20.32;44.56;100487.50;5030025;28;20041;-74
2023/11/07 04:45:33;;;;;;;1.95;1.60;;;;;;;20.36;44.73;100491.38;5029269;28;20033;-74
2023/11/07 04:47:59;;;;;;;3.40;1.73;;;;;;;20.31;44.65;100474.47;5023539;28;20514;-74
2023/11/07 04:50:26;;;;;;;1.85;1.58;;;;;;;20.37;44.71;100500.97;5018563;28;20072;-74
2023/11/07 04:52:53;;;;;;;3.78;1.50;;;;;;;20.37;45.08;100493.03;5032569;28;20527;-74
2023/11/07 04:55:21;;;;;;;3.38;1.55;;;;;;;20.25;44.80;100473.38;5026290;28;20112;-74
2023/11/07 04:57:49;;;;;;;1.85;1.65;;;;;;;20.30;44.74;100491.34;5031502;28;20042;-74
2023/11/07 05:00:15;;;;;;;1.50;1.40;;;;;;;20.37;44.67;100495.69;5027834;28;20037;-74
2023/11/07 05:02:42;;;;;;;2.13;1.52;;;;;;;20.26;44.72;100488.25;5029629;28;20394;-74
2023/11/07 05:05:09;;;;;;;1.75;1.50;;;;;;;20.31;44.68;100490.34;5031364;28;20037;-74
2023/11/07 05:07:37;;;;;;;1.80;1.50;;;;;;;20.35;44.66;100491.59;5023829;28;20087;-74
2023/11/07 05:10:09;;;;;;;1.60;1.50;;;;;;;20.31;44.82;100488.50;5031746;28;20056;-75
2023/11/07 05:12:36;;;;;;;1.77;1.63;;;;;;;20.28;44.70;100486.22;5026312;28;20065;-74
2023/11/07 05:15:03;;;;;;;2.00;1.70;;;;;;;20.33;44.89;100494.44;5026296;28;20049;-74
2023/11/07 05:17:29;;;;;;;1.65;1.40;;;;;;;20.32;44.74;100492.78;5026200;28;20727;-73
2023/11/07 05:19:54;;;;;;;1.58;1.48;;;;;;;20.27;44.80;100486.41;5025144;28;20052;-73
2023/11/07 05:22:20;;;;;;;1.60;1.50;;;;;;;20.33;44.73;100505.00;5027049;28;20029;-73
2023/11/07 05:24:46;;;;;;;2.85;1.67;;;;;;;20.29;44.82;100503.75;5027746;28;20045;-72
2023/11/07 05:27:11;;;;;;;2.70;1.80;;;;;;;20.31;44.73;100501.72;5028392;28;20045;-73
2023/11/07 05:29:37;;;;;;;2.42;1.60;;;;;;;20.11;44.78;100469.03;5025513;28;20033;-73
2023/11/07 05:32:03;;;;;;;2.80;1.60;;;;;;;20.28;44.71;100506.56;5025827;28;20038;-72
2023/11/07 05:34:29;;;;;;;1.80;1.58;;;;;;;20.13;44.84;100482.88;5021062;28;20442;-73
2023/11/07 05:36:55;;;;;;;2.85;1.73;;;;;;;20.27;44.66;100510.22;5023573;28;20045;-73
2023/11/07 05:39:21;;;;;;;1.85;1.42;;;;;;;20.23;44.90;100499.22;5026448;28;20052;-73
2023/11/07 05:41:47;;;;;;;1.90;1.42;;;;;;;20.33;44.72;100514.75;5024220;28;20041;-75
2023/11/07 05:44:13;;;;;;;2.05;1.55;;;;;;;20.26;44.45;100511.22;5026774;28;20628;-72
2023/11/07 05:46:38;;;;;;;2.20;1.45;;;;;;;20.33;44.68;100533.28;5022282;28;20183;-73
2023/11/07 05:49:04;;;;;;;1.88;1.65;;;;;;;20.33;44.60;100514.75;5023168;28;20045;-73
2023/11/07 05:51:29;;;;;;;1.98;1.77;;;;;;;20.33;44.63;100533.28;5027742;28;20041;-73
2023/11/07 05:53:55;;;;;;;2.33;1.73;;;;;;;20.25;44.78;100518.34;5022443;28;20057;-73
2023/11/07 05:56:21;;;;;;;1.45;1.35;;;;;;;20.20;44.80;100510.16;5020065;28;20044;-73
2023/11/07 05:58:49;;;;;;;2.67;1.65;;;;;;;20.18;44.70;100510.34;5027558;28;20041;-73
2023/11/07 06:01:14;;;;;;;1.50;1.40;;;;;;;20.22;44.89;100521.38;5026500;28;20087;-73
2023/11/07 06:03:40;;;;;;;2.00;1.67;;;;;;;20.16;44.82;100507.09;5022281;28;20041;-73
2023/11/07 06:06:07;;;;;;;1.70;1.60;;;;;;;20.31;44.86;100538.75;5023522;28;20403;-75
2023/11/07 06:08:32;;;;;;;3.40;1.55;;;;;;;20.30;44.60;100531.00;5018698;28;20045;-73
2023/11/07 06:10:58;;;;;;;1.98;1.40;;;;;;;20.28;44.77;100531.19;5003570;28;20053;-73
2023/11/07 06:13:23;;;;;;;1.50;1.40;;;;;;;20.31;44.65;100544.03;5030466;28;20391;-75
2023/11/07 06:15:49;;;;;;;2.28;1.70;;;;;;;20.30;44.84;100539.75;5008477;28;20037;-73
2023/11/07 06:18:14;;;;;;;3.58;1.50;;;;;;;20.29;44.84;100540.78;5012982;28;20112;-73
2023/11/07 06:20:42;;;;;;;1.65;1.45;;;;;;;20.20;44.86;100528.66;5030681;28;20099;-73
2023/11/07 06:23:08;;;;;;;1.73;1.48;;;;;;;20.18;44.69;100531.50;5029603;28;20157;-72
2023/11/07 06:25:34;;;;;;;2.03;1.50;;;;;;;20.32;44.76;100547.50;5007309;28;20416;-72
2023/11/07 06:28:00;;;;;;;2.72;1.48;;;;;;;20.30;44.72;100547.69;5021441;28;20073;-73
2023/11/07 06:30:29;;;;;;;2.30;1.90;;;;;;;20.31;44.69;100554.63;5025092;28;20577;-73
2023/11/07 06:32:56;;;;;;;1.93;1.50;;;;;;;20.24;44.80;100535.22;5028497;28;20148;-73
2023/11/07 06:35:22;;;;;;;1.90;1.48;;;;;;;20.22;44.83;100553.91;5026030;28;20475;-73
2023/11/07 06:37:48;;;;;;;1.75;1.50;;;;;;;20.23;44.80;100560.00;5029319;28;20366;-73
2023/11/07 06:40:14;;;;;;;3.45;1.40;;;;;;;20.27;44.75;100571.03;5019871;28;20470;-73
2023/11/07 06:42:41;;;;;;;2.75;1.70;;;;;;;20.17;44.66;100552.84;5030137;28;20044;-73
2023/11/07 06:45:11;;;;;;;1.77;1.65;;;;;;;20.20;44.81;100555.94;5024633;28;20219;-73
2023/11/07 06:47:41;;;;;;;2.53;1.95;;;;;;;19.98;44.74;100527.03;5025067;28;20148;-73
2023/11/07 06:50:12;;;;;;;3.13;2.00;;;;;;;20.28;44.75;100575.31;5023602;28;20128;-72
2023/11/07 06:52:47;;;;;;;2.78;1.38;;;;;;;20.17;44.83;100547.56;5009601;28;20041;-72
2023/11/07 06:55:13;;;;;;;2.63;1.70;;;;;;;20.23;44.85;100565.31;5018987;28;20057;-73
2023/11/07 06:57:42;;;;;;;2.15;1.55;;;;;;;20.27;44.82;100574.50;5013165;28;20588;-73
2023/11/07 07:00:09;;;;;;;3.13;1.70;;;;;;;20.28;44.76;100570.03;5033683;28;20048;-73
2023/11/07 07:02:40;;;;;;;1.60;1.50;;;;;;;20.20;44.73;100566.50;5027003;28;20029;-73
2023/11/07 07:05:10;;;;;;;3.13;1.63;;;;;;;20.27;44.79;100579.78;5021376;28;20045;-73
2023/11/07 07:07:36;;;;;;;1.73;1.55;;;;;;;20.12;44.78;100561.34;5021776;28;20053;-74
2023/11/07 07:10:01;;;;;;;2.38;1.33;;;;;;;20.20;44.84;100577.06;5025609;28;20048;-73
2023/11/07 07:12:28;;;;;;;1.63;1.23;;;;;;;20.27;44.71;100577.13;5022306;28;20034;-73
2023/11/07 07:14:53;;;;;;;2.42;1.50;;;;;;;20.32;44.64;100588.00;5016269;28;20034;-73
2023/11/07 07:17:19;;;;;;;3.17;1.70;;;;;;;20.42;44.71;100585.88;5025374;28;20052;-73
2023/11/07 07:19:45;;;;;;;1.90;1.52;;;;;;;20.56;44.17;100549.78;5006297;28;20037;-73
2023/11/07 07:22:11;;;;;;;1.38;1.27;;;;;;;21.67;42.64;100585.94;5022822;28;20041;-73
2023/11/07 07:24:38;;;;;;;1.92;1.38;;;;;;;22.08;41.67;100579.78;5015020;28;20049;-73
2023/11/07 07:27:04;;;;;;;1.92;1.15;;;;;;;22.13;41.70;100587.16;5018006;28;20033;-73
2023/11/07 07:29:29;;;;;;;1.45;1.15;;;;;;;21.98;42.16;100596.03;5016609;28;20132;-73
2023/11/07 07:31:57;;;;;;;1.77;1.50;;;;;;;21.69;42.64;100583.09;5021083;28;20441;-73
2023/11/07 07:34:22;;;;;;;1.63;1.38;;;;;;;21.51;42.99;100588.91;5014317;28;20086;-73
2023/11/07 07:36:50;;;;;;;1.67;1.30;;;;;;;21.36;43.04;100588.22;5015364;28;20535;-73
2023/11/07 07:39:28;;;;;;;1.88;1.50;;;;;;;21.24;43.72;100587.13;5021245;28;20088;-73
2023/11/07 07:42:00;;;;;;;2.85;1.70;;;;;;;21.21;43.90;100611.34;5025049;28;20191;-73
2023/11/07 07:44:26;;;;;;;2.22;1.40;;;;;;;21.08;43.90;100599.66;5023169;28;20052;-73
2023/11/07 07:46:56;;;;;;;1.73;1.33;;;;;;;21.09;43.89;100611.88;5023517;28;20044;-73
2023/11/07 07:49:23;;;;;;;1.35;1.17;;;;;;;20.98;43.94;100600.97;5022828;28;20041;-73
2023/11/07 07:51:55;;;;;;;1.73;1.63;;;;;;;20.99;44.06;100615.84;5022206;28;20467;-73
2023/11/07 07:54:24;;;;;;;1.60;1.48;;;;;;;20.95;44.28;100611.97;5000276;28;20583;-72
2023/11/07 07:56:54;;;;;;;3.05;1.40;;;;;;;20.99;44.17;100626.44;5021722;28;20047;-73
2023/11/07 07:59:25;;;;;;;1.42;1.27;;;;;;;20.95;44.46;100612.78;5027179;28;20048;-73
2023/11/07 08:01:53;;;;;;;1.50;1.40;;;;;;;20.98;44.38;100622.97;5025765;28;20034;-73
2023/11/07 08:04:23;;;;;;;2.25;1.38;;;;;;;20.98;44.19;100619.50;5025578;28;20128;-73
2023/11/07 08:06:48;;;;;;;;;;;;;;;20.97;44.29;100623.16;5026406;28;20065;-73
2023/11/07 08:09:14;;;;;;;1.85;1.40;;;;;;;20.96;44.52;100622.34;5023600;28;20028;-73
2023/11/07 08:11:41;;;;;;;2.35;1.50;;;;;;;20.94;44.23;100612.97;5027760;28;20068;-73
2023/11/07 08:14:07;;;;;;;2.55;1.58;;;;;;;20.84;44.57;100604.56;5028105;28;20102;-73
2023/11/07 08:16:33;;;;;;;1.33;1.23;;;;;;;20.95;44.28;100617.25;5031419;28;20487;-73
2023/11/07 08:18:59;;;;;;;1.75;1.52;;;;;;;20.95;44.33;100618.06;5018793;28;20042;-73
2023/11/07 08:21:25;;;;;;;2.40;1.40;;;;;;;20.90;44.27;100617.00;5025890;28;20068;-73
2023/11/07 08:23:51;;;;;;;1.30;1.20;;;;;;;20.96;44.26;100619.69;5022531;28;20057;-73
2023/11/07 08:26:17;;;;;;;2.83;1.73;;;;;;;20.95;44.22;100633.94;5026232;28;20048;-73
2023/11/07 08:28:43;;;;;;;1.63;1.50;;;;;;;20.98;44.42;100641.50;5003016;28;20034;-73
2023/11/07 08:31:12;;;;;;;1.35;1.25;;;;;;;20.90;44.14;100617.84;5026664;28;20077;-73
2023/11/07 08:33:38;;;;;;;2.22;1.27;;;;;;;20.98;44.23;100635.38;5026529;28;20052;-74
2023/11/07 08:36:04;;;;;;;2.97;1.77;;;;;;;21.00;44.27;100638.66;5029173;28;20056;-74
2023/11/07 08:38:30;;;;;;;1.90;1.25;;;;;;;21.01;44.21;100641.16;5027662;28;20081;-74
2023/11/07 08:40:56;;;;;;;2.85;1.70;;;;;;;20.94;44.06;100634.97;5024839;28;21462;-73
2023/11/07 08:43:22;;;;;;;1.40;1.25;;;;;;;20.94;44.00;100631.50;5026334;28;20403;-73
2023/11/07 08:45:48;;;;;;;1.35;1.23;;;;;;;21.00;44.18;100649.25;5023153;28;20037;-73
2023/11/07 08:48:13;;;;;;;1.42;1.08;;;;;;;20.99;43.91;100648.44;5022687;28;20037;-71
2023/11/07 08:50:39;;;;;;;1.40;1.25;;;;;;;20.93;44.10;100640.44;5023778;28;20052;-71
2023/11/07 08:53:05;;;;;;;2.13;1.70;;;;;;;20.99;44.28;100648.44;5025198;28;21323;-71
2023/11/07 08:55:31;;;;;;;2.13;1.50;;;;;;;20.99;44.06;100653.72;5025681;28;20033;-72
2023/11/07 08:57:57;;;;;;;1.58;1.48;;;;;;;20.96;44.37;100663.88;5024551;28;20064;-72
2023/11/07 09:00:26;;;;;;;2.45;1.48;;;;;;;20.99;44.22;100666.16;5021999;28;20045;-72
2023/11/07 09:02:53;;;;;;;1.67;1.40;;;;;;;20.97;44.13;100668.97;5030450;28;20052;-72
2023/11/07 09:05:18;;;;;;;2.22;1.52;;;;;;;20.97;44.13;100663.69;5025869;28;20593;-72
2023/11/07 09:07:45;;;;;;;1.38;1.17;;;;;;;20.92;44.08;100654.69;5030013;28;20044;-72
2023/11/07 09:10:14;;;;;;;1.40;1.27;;;;;;;20.96;44.22;100670.00;5020567;28;20041;-72
2023/11/07 09:12:43;;;;;;;1.48;1.35;;;;;;;20.97;44.06;100673.47;5022587;28;20045;-72
2023/11/07 09:15:10;;;;;;;2.33;1.40;;;;;;;20.97;44.30;100674.28;5023136;28;20304;-71
2023/11/07 09:17:39;;;;;;;1.52;1.20;;;;;;;21.00;44.20;100679.19;5018763;28;20498;-71
2023/11/07 09:20:09;;;;;;;2.78;1.55;;;;;;;21.05;43.93;100673.34;5027494;28;20042;-72
2023/11/07 09:22:35;;;;;;;;;;;;;;;21.37;43.51;100688.69;5019269;28;20041;-72
2023/11/07 09:25:01;;;;;;;1.42;1.33;;;;;;;21.40;43.26;100684.84;5025456;28;19932;-71
2023/11/07 09:27:27;;;;;;;3.13;1.45;;;;;;;21.45;43.04;100685.06;5025677;28;20037;-72
2023/11/07 09:29:56;;;;;;;2.40;1.30;;;;;;;21.50;43.21;100692.44;5009042;28;20036;-71
2023/11/07 09:32:22;;;;;;;3.55;1.80;;;;;;;21.38;43.30;100682.41;5027031;28;20049;-72
2023/11/07 09:34:48;;;;;;;1.98;1.20;;;;;;;21.27;43.36;100668.84;5019755;28;20025;-72
2023/11/07 09:37:15;;;;;;;1.77;1.17;;;;;;;21.35;43.75;100690.69;5025912;28;20486;-72
2023/11/07 09:39:41;;;;;;;2.28;1.35;;;;;;;21.34;43.70;100689.06;5022165;28;20095;-72
2023/11/07 09:42:07;;;;;;;2.13;1.40;;;;;;;21.25;43.77;100684.94;5027707;28;20052;-72
2023/11/07 09:44:39;;;;;;;1.60;1.23;;;;;;;21.29;43.73;100695.97;5015347;28;20168;-72
2023/11/07 09:47:05;;;;;;;2.03;1.35;;;;;;;21.32;43.60;100690.28;5020948;28;20056;-70
2023/11/07 09:49:32;;;;;;;0.95;0.95;;;;;;;21.25;44.09;100687.59;5027431;28;20137;-70
2023/11/07 09:52:01;;;;;;;2.38;1.40;;;;;;;21.24;44.03;100701.00;5023568;28;20051;-69
2023/11/07 09:54:30;;;;;;;2.05;1.45;;;;;;;21.21;44.07;100694.25;5025452;28;20108;-69
2023/11/07 09:57:01;;;;;;;2.00;1.13;;;;;;;21.28;43.73;100705.72;5029764;28;20045;-70
2023/11/07 09:59:36;;;;;;;3.30;1.65;;;;;;;21.23;43.80;100705.47;5028829;28;20041;-70
2023/11/07 10:02:07;;;;;;;1.13;1.02;;;;;;;21.27;43.96;100703.28;5018686;28;20036;-70
2023/11/07 10:04:36;;;;;;;1.30;1.20;;;;;;;21.24;43.60;100701.84;5023783;28;20762;-69
2023/11/07 10:07:03;;;;;;;2.33;1.30;;;;;;;21.21;43.98;100704.84;5020584;28;20585;-70
2023/11/07 10:09:29;;;;;;;2.50;1.38;;;;;;;21.05;43.96;100687.41;5021387;28;20037;-70
2023/11/07 10:11:56;;;;;;;2.35;1.63;;;;;;;21.25;43.99;100697.34;5028996;28;20044;-69
2023/11/07 10:14:22;;;;;;;2.47;1.33;;;;;;;21.15;43.85;100692.34;5022095;28;20490;-70
2023/11/07 10:16:53;;;;;;;1.30;1.20;;;;;;;21.24;43.77;100708.94;5024551;28;20098;-70
2023/11/07 10:19:21;;;;;;;1.10;1.00;;;;;;;21.22;43.66;100703.84;5022211;28;20046;-70
2023/11/07 10:21:46;;;;;;;2.17;1.20;;;;;;;21.23;43.74;100712.59;5023915;28;20053;-70
2023/11/07 10:24:12;;;;;;;2.95;1.35;;;;;;;21.16;43.67;100701.13;5028724;28;20060;-70
2023/11/07 10:27:08;;;;;;;2.70;1.20;;;;;;;21.21;43.67;100727.88;5025632;28;20047;-70
2023/11/07 10:29:34;;;;;;;1.50;1.40;;;;;;;21.20;43.56;100711.16;5016902;28;20066;-70
2023/11/07 10:32:05;;;;;;;1.83;0.93;;;;;;;21.18;43.64;100707.84;5033661;28;20592;-70
2023/11/07 10:34:31;;;;;;;1.65;1.20;;;;;;;21.17;43.57;100694.81;5017165;28;20105;-69
2023/11/07 10:36:59;;;;;;;1.75;1.30;;;;;;;21.16;43.65;100693.97;5019215;28;20088;-69
2023/11/07 10:39:28;;;;;;;2.15;1.27;;;;;;;21.16;43.65;100693.16;5023993;28;20037;-69
2023/11/07 10:41:58;;;;;;;2.10;1.30;;;;;;;21.10;43.86;100692.13;5029654;28;20073;-69
2023/11/07 10:44:30;;;;;;;1.92;1.30;;;;;;;21.12;43.98;100704.16;5024346;28;20096;-69
2023/11/07 10:47:00;;;;;;;2.22;1.80;;;;;;;21.12;43.95;100692.75;5023584;28;20068;-70
2023/11/07 10:49:26;;;;;;;1.75;1.30;;;;;;;21.12;43.75;100700.69;5018040;28;20061;-70
2023/11/07 10:51:55;;;;;;;2.35;1.60;;;;;;;21.01;43.92;100685.34;5021201;28;20037;-71
2023/11/07 10:54:21;;;;;;;4.40;1.77;;;;;;;21.13;43.67;100699.66;5020809;28;20034;-72
2023/11/07 10:56:51;;;;;;;1.55;1.30;;;;;;;21.04;43.76;100690.25;5020276;28;20695;-72
2023/11/07 10:59:24;;;;;;;2.05;1.38;;;;;;;21.13;43.95;100703.13;5024349;28;20479;-72
2023/11/07 11:01:52;;;;;;;1.88;1.10;;;;;;;21.06;43.80;100698.81;5024036;28;20809;-73
2023/11/07 11:04:20;;;;;;;2.35;1.38;;;;;;;21.12;43.75;100720.03;5021074;28;20025;-73
2023/11/07 11:06:53;;;;;;;2.17;1.48;;;;;;;21.08;43.72;100702.09;5021595;28;20029;-73
2023/11/07 11:09:23;;;;;;;2.63;1.50;;;;;;;21.15;43.66;100704.78;5018995;28;20075;-72
2023/11/07 11:11:51;;;;;;;;;;;;;;;21.24;43.47;100708.94;5016019;28;20041;-72
2023/11/07 11:14:17;;;;;;;2.10;1.52;;;;;;;21.29;43.40;100709.19;5022248;28;19917;-73
2023/11/07 11:16:45;;;;;;;1.80;1.40;;;;;;;21.24;43.72;100704.50;5022491;28;20510;-73
2023/11/07 11:19:10;;;;;;;1.67;1.48;;;;;;;21.29;43.35;100714.50;5026938;28;20041;-72
2023/11/07 11:21:51;;;;;;;2.72;1.40;;;;;;;21.29;43.59;100712.66;5019654;28;20120;-73
2023/11/07 11:24:29;;;;;;;2.50;1.45;;;;;;;21.29;43.58;100717.97;5019136;28;20042;-72